EHBK/MST METAR and TAF weather

Enter ICAO airport designator
Station Type Date Time Source
EHBK METAR 2019/06/17 12:25 UTC NOAA

EHBK 171225Z AUTO 20005KT 130V260 9999 NSC 25/10 Q1019 NOSIG


Station Type Date Time Source
EHBK Decoded METAR 2019/06/17 12:25 UTC NOAA

Maastricht Airport Zuid Limburg, Netherlands (EHBK) 50-55N 005-47E 116M
Jun 17, 2019 - 08:25 AM EDT / 2019.06.17 1225 UTC
Wind: from the SSW (200 degrees) at 6 MPH (5 KT) (direction variable):0
Visibility: greater than 7 mile(s):0
Temperature: 77 F (25 C)
Dew Point: 50 F (10 C)
Relative Humidity: 38%
Pressure (altimeter): 30.09 in. Hg (1019 hPa)
ob: EHBK 171225Z AUTO 20005KT 130V260 9999 NSC 25/10 Q1019 NOSIG
cycle: 12

Station Type Date Time Source
EHBK TAF 2019/06/17 12:27 UTC NOAA

TAF EHBK 171100Z 1712/1818 16004KT CAVOK

Example: see airport list